Time;durP1;ratioP1;P1;durP2;ratioP2;P2;SDS_P1;SDS_P2;PMS_P1;PMS_P2;Temp;Humidity;BMP_temperature;BMP_pressure;BME280_temperature;BME280_humidity;BME280_pressure;Samples;Min_cycle;Max_cycle;Signal;HPM_P1;HPM_P2
2023/03/18 00:01:34;;;;;;;19.45;9.60;;;;;;;;;;4845359;29;20586;-91
2023/03/18 00:04:03;;;;;;;19.00;10.27;;;;;;;;;;4855948;29;20042;-91
2023/03/18 00:06:39;;;;;;;24.00;10.90;;;;;;;;;;4844805;29;20033;-93
2023/03/18 00:09:11;;;;;;;20.35;10.05;;;;;;;;;;4844669;29;20054;-92
2023/03/18 00:11:44;;;;;;;19.30;10.07;;;;;;;;;;4842086;29;20038;-93
2023/03/18 00:14:11;;;;;;;20.25;10.32;;;;;;;;;;4838598;29;20045;-93
2023/03/18 00:16:40;;;;;;;26.05;11.73;;;;;;;;;;4843591;29;20033;-92
2023/03/18 00:19:06;;;;;;;20.42;10.32;;;;;;;;;;4843753;29;20564;-91
2023/03/18 00:21:33;;;;;;;25.05;11.07;;;;;;;;;;4841287;29;20559;-92
2023/03/18 00:23:59;;;;;;;19.65;10.48;;;;;;;;;;4843949;29;20089;-92
2023/03/18 00:26:28;;;;;;;23.05;10.45;;;;;;;;;;4878050;29;20033;-92
2023/03/18 00:28:55;;;;;;;21.45;10.38;;;;;;;;;;4862863;29;20093;-93
2023/03/18 00:31:28;;;;;;;19.15;9.70;;;;;;;;;;4878209;29;20040;-92
2023/03/18 00:33:54;;;;;;;21.10;10.10;;;;;;;;;;4867628;29;20097;-93
2023/03/18 00:36:26;;;;;;;18.00;10.30;;;;;;;;;;4878267;29;20059;-92
2023/03/18 00:38:56;;;;;;;19.60;10.00;;;;;;;;;;4878419;29;20025;-91
2023/03/18 00:41:23;;;;;;;26.20;11.35;;;;;;;;;;4878094;29;20029;-92
2023/03/18 00:43:53;;;;;;;21.30;11.43;;;;;;;;;;4862787;29;20061;-93
2023/03/18 00:46:19;;;;;;;20.90;10.27;;;;;;;;;;4880597;29;20085;-91
2023/03/18 00:48:48;;;;;;;23.58;11.65;;;;;;;;;;4889536;29;20041;-92
2023/03/18 00:51:16;;;;;;;24.95;10.68;;;;;;;;;;4878850;29;20471;-91
2023/03/18 00:53:43;;;;;;;26.48;12.00;;;;;;;;;;4877941;29;20040;-91
2023/03/18 00:56:20;;;;;;;23.00;10.70;;;;;;;;;;4878090;29;20084;-92
2023/03/18 00:58:47;;;;;;;20.85;10.23;;;;;;;;;;4862306;29;20053;-92
2023/03/18 01:01:16;;;;;;;20.08;9.35;;;;;;;;;;4843720;29;20030;-92
2023/03/18 01:06:55;;;;;;;17.73;9.38;;;;;;;;;;4832132;29;20460;-93
2023/03/18 01:09:27;;;;;;;19.63;9.82;;;;;;;;;;4824715;29;20048;-92
2023/03/18 01:11:53;;;;;;;21.08;10.85;;;;;;;;;;4824836;29;20040;-92
2023/03/18 01:14:22;;;;;;;18.55;10.68;;;;;;;;;;4824408;29;20137;-92
2023/03/18 01:16:48;;;;;;;22.92;11.60;;;;;;;;;;4824487;29;20499;-93
2023/03/18 01:22:17;;;;;;;25.58;12.40;;;;;;;;;;4839819;29;20045;-92
2023/03/18 01:24:43;;;;;;;28.40;11.65;;;;;;;;;;4824306;29;20129;-92
2023/03/18 01:27:16;;;;;;;27.67;12.20;;;;;;;;;;4824521;29;20029;-92
2023/03/18 01:29:42;;;;;;;27.80;11.80;;;;;;;;;;4824459;29;20381;-91
2023/03/18 01:32:12;;;;;;;24.92;11.85;;;;;;;;;;4824357;29;20500;-92
2023/03/18 01:34:40;;;;;;;23.40;12.50;;;;;;;;;;4839633;29;20042;-90
2023/03/18 01:37:06;;;;;;;23.05;11.68;;;;;;;;;;4845609;29;20033;-91
2023/03/18 01:39:35;;;;;;;22.85;11.30;;;;;;;;;;4843828;29;20032;-92
2023/03/18 01:42:02;;;;;;;21.27;10.85;;;;;;;;;;4843205;29;20037;-93
2023/03/18 01:44:29;;;;;;;23.45;11.13;;;;;;;;;;4853577;29;20030;-93
2023/03/18 01:47:01;;;;;;;26.70;13.18;;;;;;;;;;4843495;29;20025;-93
2023/03/18 01:49:31;;;;;;;23.27;11.90;;;;;;;;;;4843445;29;20048;-93
2023/03/18 01:51:59;;;;;;;29.83;11.90;;;;;;;;;;4843421;29;20033;-93
2023/03/18 01:54:26;;;;;;;28.70;13.32;;;;;;;;;;4842829;29;20033;-94
2023/03/18 01:56:52;;;;;;;30.73;13.23;;;;;;;;;;4843470;29;20040;-93
2023/03/18 01:59:20;;;;;;;31.17;14.10;;;;;;;;;;4843327;29;20025;-92
2023/03/18 02:02:05;;;;;;;29.98;15.00;;;;;;;;;;4843331;29;20033;-92
2023/03/18 02:04:41;;;;;;;42.90;18.83;;;;;;;;;;4843800;29;20048;-94
2023/03/18 02:07:07;;;;;;;39.67;19.15;;;;;;;;;;4844019;29;20033;-93
2023/03/18 02:09:33;;;;;;;41.60;19.50;;;;;;;;;;4843043;29;20030;-91
2023/03/18 02:12:04;;;;;;;41.40;20.20;;;;;;;;;;4843103;29;20043;-92
2023/03/18 02:14:30;;;;;;;39.58;18.25;;;;;;;;;;4843303;29;20124;-92
2023/03/18 02:16:56;;;;;;;35.45;16.95;;;;;;;;;;4843273;29;20033;-91
2023/03/18 02:19:48;;;;;;;30.88;13.57;;;;;;;;;;4843324;29;20030;-91
2023/03/18 02:22:23;;;;;;;28.73;14.07;;;;;;;;;;4786862;29;20039;-92
2023/03/18 02:24:56;;;;;;;26.90;13.80;;;;;;;;;;4846714;29;20471;-93
2023/03/18 02:27:25;;;;;;;26.98;12.82;;;;;;;;;;4842859;29;20041;-91
2023/03/18 02:29:55;;;;;;;23.83;12.15;;;;;;;;;;4843019;29;20045;-92
2023/03/18 02:32:22;;;;;;;25.95;12.20;;;;;;;;;;4843063;29;20413;-93
2023/03/18 02:34:51;;;;;;;22.23;11.10;;;;;;;;;;4844732;29;20073;-92
2023/03/18 02:37:17;;;;;;;22.77;10.93;;;;;;;;;;4846933;29;20031;-92
2023/03/18 02:39:43;;;;;;;20.27;10.65;;;;;;;;;;4846453;29;20030;-92
2023/03/18 02:42:13;;;;;;;22.27;11.00;;;;;;;;;;4846558;29;20026;-92
2023/03/18 02:44:41;;;;;;;24.58;11.73;;;;;;;;;;4846447;29;20033;-91
2023/03/18 02:47:16;;;;;;;29.13;13.55;;;;;;;;;;4845994;29;20034;-91
2023/03/18 02:49:43;;;;;;;29.02;13.35;;;;;;;;;;4848279;29;20039;-90
2023/03/18 02:52:12;;;;;;;27.88;12.48;;;;;;;;;;4852080;29;20021;-91
2023/03/18 02:54:38;;;;;;;25.55;12.10;;;;;;;;;;4847751;29;20526;-92
2023/03/18 02:57:04;;;;;;;25.55;12.00;;;;;;;;;;4851481;29;20045;-92
2023/03/18 02:59:33;;;;;;;26.98;12.10;;;;;;;;;;4848668;29;20041;-92
2023/03/18 03:02:00;;;;;;;23.98;12.75;;;;;;;;;;4845806;29;20026;-90
2023/03/18 03:04:26;;;;;;;21.40;11.38;;;;;;;;;;4846042;29;20033;-91
2023/03/18 03:06:57;;;;;;;27.25;11.82;;;;;;;;;;4845985;29;20033;-91
2023/03/18 03:09:23;;;;;;;24.33;11.32;;;;;;;;;;4845666;29;20034;-92
2023/03/18 03:11:52;;;;;;;24.27;11.23;;;;;;;;;;4846132;29;20503;-93
2023/03/18 03:14:18;;;;;;;28.40;11.93;;;;;;;;;;4846185;29;20069;-92
2023/03/18 03:16:48;;;;;;;26.00;11.65;;;;;;;;;;4846133;29;20041;-93
2023/03/18 03:19:14;;;;;;;30.55;13.73;;;;;;;;;;4845693;29;20033;-91
2023/03/18 03:21:41;;;;;;;38.55;16.08;;;;;;;;;;4854933;29;20041;-91
2023/03/18 03:24:13;;;;;;;41.53;16.73;;;;;;;;;;4846839;29;20029;-92
2023/03/18 03:26:39;;;;;;;33.20;14.50;;;;;;;;;;4845560;29;20498;-92
2023/03/18 03:29:06;;;;;;;30.67;14.25;;;;;;;;;;4845640;29;20033;-94
2023/03/18 03:31:32;;;;;;;29.40;13.10;;;;;;;;;;4845735;29;20026;-93
2023/03/18 03:34:01;;;;;;;25.15;12.27;;;;;;;;;;4845945;29;20189;-92
2023/03/18 03:36:27;;;;;;;29.63;13.55;;;;;;;;;;4854995;29;20042;-93
2023/03/18 03:38:59;;;;;;;30.40;13.88;;;;;;;;;;4845863;29;20030;-92
2023/03/18 03:44:39;;;;;;;28.83;11.37;;;;;;;;;;4919663;23;20133;-93
2023/03/18 03:47:24;;;;;;;23.75;12.23;;;;;;;;;;4881917;29;20766;-93
2023/03/18 03:49:51;;;;;;;29.33;13.07;;;;;;;;;;4882410;29;20040;-92
2023/03/18 03:52:18;;;;;;;27.35;12.50;;;;;;;;;;4882429;29;20032;-92
2023/03/18 03:54:45;;;;;;;28.75;12.90;;;;;;;;;;4882243;29;20136;-92
2023/03/18 03:57:15;;;;;;;25.92;12.65;;;;;;;;;;4882735;29;20037;-94
2023/03/18 03:59:41;;;;;;;33.97;15.27;;;;;;;;;;4882354;29;20111;-93
2023/03/18 04:02:13;;;;;;;28.48;12.48;;;;;;;;;;4882297;29;20037;-92
2023/03/18 04:04:39;;;;;;;29.42;13.02;;;;;;;;;;4882386;29;20063;-92
2023/03/18 04:07:11;;;;;;;30.73;13.05;;;;;;;;;;4882336;29;20446;-92
2023/03/18 04:09:41;;;;;;;33.53;15.45;;;;;;;;;;4882184;29;20040;-92
2023/03/18 04:12:08;;;;;;;34.95;14.02;;;;;;;;;;4881778;29;20117;-93
2023/03/18 04:14:35;;;;;;;37.47;14.32;;;;;;;;;;4892031;29;20044;-93
2023/03/18 04:17:06;;;;;;;30.95;13.88;;;;;;;;;;4882292;29;20025;-92
2023/03/18 04:19:33;;;;;;;28.10;13.77;;;;;;;;;;4881684;29;20032;-91
2023/03/18 04:22:00;;;;;;;32.53;14.48;;;;;;;;;;4882154;29;20089;-92
2023/03/18 04:24:26;;;;;;;34.28;15.02;;;;;;;;;;4881435;29;20043;-91
2023/03/18 04:26:58;;;;;;;32.63;14.10;;;;;;;;;;4882241;29;20066;-92
2023/03/18 04:29:24;;;;;;;36.05;14.35;;;;;;;;;;4880062;29;20056;-92
2023/03/18 04:31:50;;;;;;;30.27;14.32;;;;;;;;;;4881711;29;20028;-92
2023/03/18 04:34:21;;;;;;;31.10;13.20;;;;;;;;;;4881655;29;20116;-92
2023/03/18 04:36:47;;;;;;;31.50;14.48;;;;;;;;;;4880551;29;20032;-93
2023/03/18 04:39:13;;;;;;;28.58;13.00;;;;;;;;;;4881197;29;20534;-92
2023/03/18 04:41:39;;;;;;;28.00;12.30;;;;;;;;;;4880973;29;20028;-91
2023/03/18 04:44:11;;;;;;;25.85;12.73;;;;;;;;;;4879781;29;20119;-91
2023/03/18 04:46:37;;;;;;;28.73;12.88;;;;;;;;;;4862340;29;20041;-92
2023/03/18 04:49:04;;;;;;;26.98;11.98;;;;;;;;;;4862429;29;20045;-91
2023/03/18 04:51:30;;;;;;;24.10;11.63;;;;;;;;;;4866122;29;20028;-94
2023/03/18 04:53:56;;;;;;;28.15;11.98;;;;;;;;;;4862427;29;20043;-92
2023/03/18 04:56:25;;;;;;;23.15;11.73;;;;;;;;;;4862180;29;20025;-93
2023/03/18 04:58:51;;;;;;;24.38;12.50;;;;;;;;;;4861431;29;20072;-93
2023/03/18 05:01:20;;;;;;;25.90;11.25;;;;;;;;;;4863051;29;20125;-93
2023/03/18 05:03:47;;;;;;;26.63;11.65;;;;;;;;;;4862930;29;20407;-91
2023/03/18 05:06:20;;;;;;;29.02;12.63;;;;;;;;;;4868147;29;20049;-91
2023/03/18 05:08:46;;;;;;;28.80;12.77;;;;;;;;;;4870205;29;20041;-93
2023/03/18 05:11:13;;;;;;;26.30;12.57;;;;;;;;;;4862594;29;20021;-92
2023/03/18 05:13:40;;;;;;;27.67;12.95;;;;;;;;;;4858946;29;20037;-91
2023/03/18 05:16:12;;;;;;;25.63;12.52;;;;;;;;;;4862189;29;20033;-92
2023/03/18 05:18:40;;;;;;;32.95;13.25;;;;;;;;;;4862209;29;20285;-93
2023/03/18 05:21:09;;;;;;;36.20;14.48;;;;;;;;;;4862424;29;20387;-92
2023/03/18 05:23:35;;;;;;;40.55;15.15;;;;;;;;;;4862564;29;20037;-93
2023/03/18 05:26:04;;;;;;;35.83;14.65;;;;;;;;;;4862137;29;20129;-92
2023/03/18 05:28:37;;;;;;;29.45;13.98;;;;;;;;;;4861977;29;20047;-92
2023/03/18 05:31:06;;;;;;;33.30;14.07;;;;;;;;;;4862648;29;20026;-92
2023/03/18 05:33:32;;;;;;;34.28;14.70;;;;;;;;;;4867626;29;20116;-92
2023/03/18 05:36:01;;;;;;;30.85;14.23;;;;;;;;;;4867342;29;20041;-92
2023/03/18 05:38:33;;;;;;;35.50;14.35;;;;;;;;;;4870777;29;20159;-92
2023/03/18 05:41:09;;;;;;;28.25;13.82;;;;;;;;;;4862508;29;20055;-93
2023/03/18 05:43:41;;;;;;;50.78;25.63;;;;;;;;;;4863067;29;20029;-92
2023/03/18 05:46:10;;;;;;;43.15;20.10;;;;;;;;;;4863899;29;20102;-92
2023/03/18 05:48:40;;;;;;;40.17;17.60;;;;;;;;;;4861541;29;20203;-92
2023/03/18 05:51:06;;;;;;;27.98;14.00;;;;;;;;;;4861912;29;20069;-91
2023/03/18 05:53:32;;;;;;;21.27;10.82;;;;;;;;;;4862775;29;20025;-91
2023/03/18 05:56:03;;;;;;;20.92;10.02;;;;;;;;;;4863595;29;20029;-92
2023/03/18 05:58:33;;;;;;;16.75;9.18;;;;;;;;;;4863425;29;20174;-92
2023/03/18 06:00:59;;;;;;;22.48;10.63;;;;;;;;;;4862473;29;20055;-92
2023/03/18 06:03:29;;;;;;;14.02;8.50;;;;;;;;;;4863085;29;20116;-91
2023/03/18 06:05:55;;;;;;;17.95;9.13;;;;;;;;;;4863066;29;20108;-92
2023/03/18 06:08:21;;;;;;;14.80;8.70;;;;;;;;;;4863791;29;20124;-91
2023/03/18 06:10:47;;;;;;;14.90;8.93;;;;;;;;;;4867407;29;20505;-92
2023/03/18 06:13:15;;;;;;;13.68;8.07;;;;;;;;;;4869902;29;20036;-94
2023/03/18 06:15:47;;;;;;;12.82;8.05;;;;;;;;;;4878954;29;20049;-91
2023/03/18 06:18:13;;;;;;;13.55;8.20;;;;;;;;;;4877527;29;20029;-94
2023/03/18 06:23:43;;;;;;;11.98;7.68;;;;;;;;;;4916513;23;20100;-93
2023/03/18 06:26:13;;;;;;;14.00;8.00;;;;;;;;;;4876745;29;20051;-92
2023/03/18 06:28:39;;;;;;;14.73;8.00;;;;;;;;;;4873600;29;20047;-91
2023/03/18 06:31:07;;;;;;;12.25;8.27;;;;;;;;;;4893125;29;20061;-92
2023/03/18 06:33:37;;;;;;;12.32;8.10;;;;;;;;;;4873091;29;20028;-91
2023/03/18 06:36:04;;;;;;;13.30;9.15;;;;;;;;;;4873096;29;20089;-93
2023/03/18 06:38:33;;;;;;;11.80;7.30;;;;;;;;;;4891087;29;20033;-91
2023/03/18 06:41:00;;;;;;;11.13;7.25;;;;;;;;;;4870948;29;20052;-94
2023/03/18 06:43:27;;;;;;;11.23;8.02;;;;;;;;;;4874997;29;20085;-94
2023/03/18 06:45:54;;;;;;;10.15;6.28;;;;;;;;;;4858379;29;20033;-94
2023/03/18 06:48:22;;;;;;;9.27;6.50;;;;;;;;;;4891401;29;20037;-93
2023/03/18 06:50:55;;;;;;;10.13;7.53;;;;;;;;;;4875176;29;20089;-93
2023/03/18 06:53:22;;;;;;;9.38;6.45;;;;;;;;;;4891328;29;20043;-92
2023/03/18 06:55:48;;;;;;;10.23;6.20;;;;;;;;;;4873085;29;20037;-93
2023/03/18 06:58:16;;;;;;;11.35;6.85;;;;;;;;;;4876424;29;20079;-92
2023/03/18 07:00:46;;;;;;;11.35;6.50;;;;;;;;;;4865799;29;20285;-94
2023/03/18 07:03:15;;;;;;;9.23;5.85;;;;;;;;;;4865069;29;20124;-94
2023/03/18 07:05:42;;;;;;;11.82;6.13;;;;;;;;;;4864653;29;20029;-94
2023/03/18 07:08:12;;;;;;;8.55;5.47;;;;;;;;;;4865101;29;20512;-93
2023/03/18 07:10:38;;;;;;;9.43;6.00;;;;;;;;;;4865012;29;20093;-93
2023/03/18 07:13:04;;;;;;;10.55;7.45;;;;;;;;;;4866214;29;20574;-92
2023/03/18 07:15:31;;;;;;;10.77;6.97;;;;;;;;;;4873107;29;20059;-92
2023/03/18 07:17:59;;;;;;;7.63;5.55;;;;;;;;;;4864769;29;20033;-91
2023/03/18 07:20:26;;;;;;;9.38;5.57;;;;;;;;;;4863682;29;20112;-89
2023/03/18 07:22:52;;;;;;;9.82;6.00;;;;;;;;;;4864198;29;20049;-89
2023/03/18 07:25:18;;;;;;;9.50;5.55;;;;;;;;;;4864396;29;20040;-91
2023/03/18 07:27:45;;;;;;;8.63;5.45;;;;;;;;;;4864496;29;20025;-93
2023/03/18 07:30:27;;;;;;;9.55;5.57;;;;;;;;;;4868323;29;20485;-96
2023/03/18 07:32:54;;;;;;;9.85;5.25;;;;;;;;;;4865438;29;20089;-92
2023/03/18 07:35:40;;;;;;;8.50;5.20;;;;;;;;;;4865855;29;20025;-92
2023/03/18 07:38:10;;;;;;;10.15;6.18;;;;;;;;;;4865081;29;20029;-94
2023/03/18 07:40:40;;;;;;;13.93;5.68;;;;;;;;;;4864464;29;20453;-91
2023/03/18 07:43:08;;;;;;;10.50;5.85;;;;;;;;;;4864208;29;20101;-93
2023/03/18 07:45:37;;;;;;;10.35;5.70;;;;;;;;;;4863876;29;20475;-93
2023/03/18 07:48:04;;;;;;;12.85;8.23;;;;;;;;;;4864501;29;20451;-92
2023/03/18 07:50:30;;;;;;;10.73;7.25;;;;;;;;;;4864289;29;20582;-94
2023/03/18 07:53:23;;;;;;;12.23;6.78;;;;;;;;;;4872919;29;20037;-96
2023/03/18 07:55:49;;;;;;;9.50;5.60;;;;;;;;;;4861641;29;20033;-94
2023/03/18 07:58:15;;;;;;;9.38;5.22;;;;;;;;;;4865666;29;20029;-93
2023/03/18 08:00:41;;;;;;;10.40;4.93;;;;;;;;;;4877282;29;20037;-93
2023/03/18 08:03:40;;;;;;;7.47;4.95;;;;;;;;;;4903512;29;20021;-95
2023/03/18 08:07:02;;;;;;;8.27;5.30;;;;;;;;;;4907142;29;20061;-95
2023/03/18 08:09:32;;;;;;;10.88;5.10;;;;;;;;;;4902036;29;20041;-94
2023/03/18 08:12:28;;;;;;;9.93;5.55;;;;;;;;;;4896793;29;20028;-96
2023/03/18 08:15:08;;;;;;;9.70;5.22;;;;;;;;;;4815613;29;20046;-96
2023/03/18 08:17:35;;;;;;;9.73;5.68;;;;;;;;;;4799617;29;20531;-95
2023/03/18 08:26:30;;;;;;;6.68;4.80;;;;;;;;;;4804365;30;20059;-95
2023/03/18 08:29:11;;;;;;;8.15;5.05;;;;;;;;;;4786043;30;20055;-94
2023/03/18 08:31:43;;;;;;;8.15;5.05;;;;;;;;;;4768407;30;20032;-95
2023/03/18 08:34:18;;;;;;;9.95;5.55;;;;;;;;;;4780969;29;20121;-95
2023/03/18 08:37:11;;;;;;;8.48;4.78;;;;;;;;;;4820543;29;20030;-94
2023/03/18 08:39:46;;;;;;;9.60;5.65;;;;;;;;;;4823972;29;20117;-92
2023/03/18 08:42:44;;;;;;;9.38;4.65;;;;;;;;;;4817884;29;20030;-95
2023/03/18 08:45:27;;;;;;;7.40;4.63;;;;;;;;;;4827203;29;20037;-96
2023/03/18 08:48:01;;;;;;;10.45;5.53;;;;;;;;;;4873608;29;20041;-95
2023/03/18 08:53:27;;;;;;;8.20;5.40;;;;;;;;;;4893719;29;20051;-96
2023/03/18 08:55:55;;;;;;;7.20;4.63;;;;;;;;;;4868058;29;20030;-96
2023/03/18 09:06:56;;;;;;;7.38;4.47;;;;;;;;;;5457618;23;20140;-96
2023/03/18 09:09:37;;;;;;;8.13;5.25;;;;;;;;;;4867596;29;20045;-94
2023/03/18 09:15:26;;;;;;;;;;;;;;;;;;;;;
2023/03/18 09:24:14;;;;;;;8.10;5.40;;;;;;;;;;4814207;29;20050;-94
2023/03/18 09:27:16;;;;;;;10.60;5.20;;;;;;;;;;4770605;30;20036;-94
2023/03/18 09:29:59;;;;;;;;;;;;;;;;;;;;;
2023/03/18 09:32:31;;;;;;;7.43;5.20;;;;;;;;;;4827208;29;20117;-94
2023/03/18 09:34:57;;;;;;;8.90;5.10;;;;;;;;;;4813970;29;20058;-95
2023/03/18 09:37:32;;;;;;;9.60;5.20;;;;;;;;;;4844593;29;20042;-95
2023/03/18 09:39:59;;;;;;;8.55;4.88;;;;;;;;;;4855861;29;20026;-92
2023/03/18 10:18:42;;;;;;;9.32;5.35;;;;;;;;;;5166580;23;20037;-94
2023/03/18 10:21:35;;;;;;;9.50;5.50;;;;;;;;;;4876584;29;20029;-94
2023/03/18 10:43:03;;;;;;;10.10;4.95;;;;;;;;;;4839118;29;20054;-96
2023/03/18 10:46:08;;;;;;;;;;;;;;;;;;;;;
2023/03/18 10:58:26;;;;;;;6.80;4.95;;;;;;;;;;4799907;30;20042;-96
2023/03/18 11:01:17;;;;;;;9.85;5.65;;;;;;;;;;4798816;30;20103;-96
2023/03/18 11:04:05;;;;;;;7.50;5.32;;;;;;;;;;4787217;30;20039;-96
2023/03/18 11:06:54;;;;;;;11.60;5.95;;;;;;;;;;4798003;30;20032;-96
2023/03/18 11:12:33;;;;;;;9.70;5.38;;;;;;;;;;4877815;29;20052;-96
2023/03/18 11:15:15;;;;;;;9.02;6.03;;;;;;;;;;4871997;29;20112;-95
2023/03/18 11:17:50;;;;;;;8.38;5.57;;;;;;;;;;4871581;29;20090;-96
2023/03/18 11:27:05;;;;;;;8.77;6.18;;;;;;;;;;5941623;23;20024;31
2023/03/18 11:29:34;;;;;;;8.95;6.07;;;;;;;;;;4843348;29;20057;-96
2023/03/18 11:43:58;;;;;;;7.82;4.88;;;;;;;;;;4866835;29;20057;-94
2023/03/18 11:50:11;;;;;;;9.02;5.10;;;;;;;;;;4828557;29;20050;-96
2023/03/18 11:53:13;;;;;;;8.80;5.10;;;;;;;;;;4828467;29;20062;-94
2023/03/18 11:55:57;;;;;;;10.23;5.32;;;;;;;;;;4772109;29;20174;-96
2023/03/18 11:58:45;;;;;;;6.90;4.47;;;;;;;;;;4774126;30;20536;-96
2023/03/18 12:10:35;;;;;;;8.90;5.10;;;;;;;;;;4878585;29;20077;-96
2023/03/18 12:13:39;;;;;;;8.57;5.55;;;;;;;;;;4864251;29;20049;-96
2023/03/18 12:19:14;;;;;;;7.90;4.40;;;;;;;;;;4855543;29;20033;-95
2023/03/18 12:21:52;;;;;;;5.68;4.03;;;;;;;;;;4858851;29;20029;-96
2023/03/18 12:40:27;;;;;;;7.97;5.40;;;;;;;;;;4771782;30;20036;-95
2023/03/18 12:49:02;;;;;;;7.93;4.95;;;;;;;;;;4903942;29;20051;-96
2023/03/18 12:54:57;;;;;;;6.90;4.73;;;;;;;;;;4861841;29;20498;-94
2023/03/18 13:05:41;;;;;;;9.20;5.68;;;;;;;;;;5972476;23;20029;-94
2023/03/18 14:08:02;;;;;;;12.45;8.30;;;;;;;;;;4881171;29;20071;-93
2023/03/18 14:10:35;;;;;;;13.52;7.30;;;;;;;;;;4866488;29;20037;-96
2023/03/18 14:13:48;;;;;;;;;;;;;;;;;;;;;
2023/03/18 14:16:22;;;;;;;13.10;6.10;;;;;;;;;;4844285;29;20259;-94
2023/03/18 14:26:54;;;;;;;9.88;5.80;;;;;;;;;;5343104;23;20064;-93
2023/03/18 14:29:39;;;;;;;13.43;6.45;;;;;;;;;;4887146;29;20494;-93
2023/03/18 14:32:26;;;;;;;10.32;5.93;;;;;;;;;;4890146;29;20032;-96
2023/03/18 14:41:12;;;;;;;10.48;6.93;;;;;;;;;;4881607;29;20505;-93
2023/03/18 14:46:31;;;;;;;9.52;5.82;;;;;;;;;;4980247;23;20109;-96
2023/03/18 14:49:24;;;;;;;9.80;6.55;;;;;;;;;;5227654;23;20537;-95
2023/03/18 14:52:00;;;;;;;9.35;6.30;;;;;;;;;;4887135;29;20033;-96
2023/03/18 15:01:09;;;;;;;9.77;5.03;;;;;;;;;;4885179;29;20095;-92
2023/03/18 15:03:57;;;;;;;9.90;5.60;;;;;;;;;;4857942;29;20045;-95
2023/03/18 15:09:27;;;;;;;7.40;5.05;;;;;;;;;;5294133;23;20052;-95
2023/03/18 15:12:16;;;;;;;7.80;4.80;;;;;;;;;;4894864;29;20474;-96
2023/03/18 15:14:42;;;;;;;7.25;4.50;;;;;;;;;;4894255;29;20041;-94
2023/03/18 15:17:14;;;;;;;8.63;4.32;;;;;;;;;;4889356;29;20021;-94
2023/03/18 15:22:58;;;;;;;8.60;4.43;;;;;;;;;;4817307;29;20132;-94
2023/03/18 15:25:24;;;;;;;8.50;4.75;;;;;;;;;;4808306;29;20172;-94
2023/03/18 15:37:20;;;;;;;6.30;4.60;;;;;;;;;;4852640;29;20034;-96
2023/03/18 15:53:31;;;;;;;8.60;5.68;;;;;;;;;;5183823;23;20065;-94
2023/03/18 15:56:11;;;;;;;;;;;;;;;;;;;;;
2023/03/18 15:58:49;;;;;;;6.35;4.28;;;;;;;;;;4883783;29;20036;-93
2023/03/18 16:01:19;;;;;;;8.43;4.70;;;;;;;;;;4883271;29;20025;-93
2023/03/18 16:07:03;;;;;;;9.05;5.50;;;;;;;;;;4901105;29;20493;-93
2023/03/18 16:09:33;;;;;;;8.75;5.10;;;;;;;;;;4880974;29;20044;-94
2023/03/18 16:12:16;;;;;;;6.80;4.75;;;;;;;;;;4895001;29;20057;-96
2023/03/18 16:14:43;;;;;;;9.32;4.68;;;;;;;;;;4865725;29;20032;-96
2023/03/18 16:17:11;;;;;;;8.77;5.25;;;;;;;;;;4865199;29;20040;-92
2023/03/18 16:19:54;;;;;;;9.82;6.93;;;;;;;;;;4864528;29;20025;-92
2023/03/18 16:22:20;;;;;;;9.43;5.13;;;;;;;;;;4864782;29;20044;-94
2023/03/18 16:24:47;;;;;;;8.80;5.20;;;;;;;;;;4849833;29;20034;-94
2023/03/18 16:27:21;;;;;;;10.00;4.70;;;;;;;;;;4846561;29;20173;-92
2023/03/18 16:29:48;;;;;;;11.77;5.47;;;;;;;;;;4846810;29;20513;-96
2023/03/18 16:32:14;;;;;;;9.10;5.32;;;;;;;;;;4847206;29;20030;-93
2023/03/18 16:34:41;;;;;;;12.18;5.80;;;;;;;;;;4847672;29;20037;-94
2023/03/18 16:37:10;;;;;;;10.25;6.05;;;;;;;;;;4846095;29;20030;-96
2023/03/18 16:39:36;;;;;;;9.15;6.05;;;;;;;;;;4846027;29;20046;-96
2023/03/18 16:42:05;;;;;;;9.23;5.43;;;;;;;;;;4845791;29;20506;-95
2023/03/18 16:44:33;;;;;;;10.90;5.85;;;;;;;;;;4845604;29;20558;-94
2023/03/18 16:47:01;;;;;;;15.80;10.35;;;;;;;;;;4845574;29;20086;-93
2023/03/18 16:49:31;;;;;;;16.60;9.85;;;;;;;;;;4877243;29;20494;-96
2023/03/18 16:51:58;;;;;;;16.42;12.13;;;;;;;;;;4883893;29;20045;-93
2023/03/18 16:54:26;;;;;;;10.77;6.35;;;;;;;;;;4884115;29;20037;-94
2023/03/18 16:56:58;;;;;;;9.55;6.65;;;;;;;;;;4884307;29;20055;-96
2023/03/18 16:59:28;;;;;;;28.63;18.98;;;;;;;;;;4883782;29;20406;-96
2023/03/18 17:01:55;;;;;;;18.15;11.85;;;;;;;;;;4884384;29;20036;-94
2023/03/18 17:04:28;;;;;;;107.97;67.95;;;;;;;;;;4886560;29;20035;-95
2023/03/18 17:13:53;;;;;;;14.30;8.48;;;;;;;;;;4880388;29;20085;-96
2023/03/18 17:16:39;;;;;;;14.30;8.85;;;;;;;;;;4873389;29;20124;-96
2023/03/18 17:19:05;;;;;;;13.13;8.77;;;;;;;;;;4878659;29;20037;-94
2023/03/18 17:21:32;;;;;;;22.88;13.50;;;;;;;;;;4863292;29;20033;-95
2023/03/18 17:24:08;;;;;;;21.10;11.50;;;;;;;;;;4867543;29;20125;-95
2023/03/18 17:26:35;;;;;;;21.83;11.95;;;;;;;;;;4871845;29;20033;-95
2023/03/18 17:29:02;;;;;;;26.15;14.00;;;;;;;;;;4881655;29;20056;-91
2023/03/18 17:31:28;;;;;;;24.58;14.07;;;;;;;;;;4881266;29;20017;-93
2023/03/18 17:34:09;;;;;;;35.53;22.42;;;;;;;;;;4886958;29;20037;-96
2023/03/18 17:36:38;;;;;;;38.42;21.27;;;;;;;;;;4882125;29;20066;-91
2023/03/18 17:42:39;;;;;;;32.33;19.58;;;;;;;;;;4880801;29;20056;-94
2023/03/18 17:45:41;;;;;;;61.72;30.77;;;;;;;;;;4864183;29;20041;-94
2023/03/18 17:48:16;;;;;;;166.73;80.85;;;;;;;;;;4791069;29;20057;-94
2023/03/18 17:50:46;;;;;;;135.00;67.10;;;;;;;;;;4854931;29;20040;-94
2023/03/18 17:53:23;;;;;;;126.65;60.97;;;;;;;;;;4864738;29;20040;-95
2023/03/18 17:58:38;;;;;;;157.02;76.85;;;;;;;;;;4873781;29;20029;-94
2023/03/18 18:01:10;;;;;;;157.50;81.47;;;;;;;;;;4864386;29;20026;-94
2023/03/18 18:03:37;;;;;;;136.57;71.72;;;;;;;;;;4863427;29;20088;-93
2023/03/18 18:06:27;;;;;;;;;;;;;;;;;;;;;
2023/03/18 18:08:57;;;;;;;121.85;59.67;;;;;;;;;;4880664;29;20045;-95
2023/03/18 18:11:25;;;;;;;120.20;56.80;;;;;;;;;;4863875;29;20483;-92
2023/03/18 18:14:01;;;;;;;119.50;57.03;;;;;;;;;;4863935;29;20085;-95
2023/03/18 18:19:49;;;;;;;101.30;46.00;;;;;;;;;;4829227;29;20038;-95
2023/03/18 18:22:20;;;;;;;113.97;49.40;;;;;;;;;;4860592;29;20109;-93
2023/03/18 18:25:10;;;;;;;99.63;46.95;;;;;;;;;;4863662;29;20061;-96
2023/03/18 18:27:36;;;;;;;82.47;39.13;;;;;;;;;;4797784;29;20042;-92
2023/03/18 18:30:07;;;;;;;71.80;36.42;;;;;;;;;;4865558;29;20052;-95
2023/03/18 18:33:11;;;;;;;90.95;44.00;;;;;;;;;;4870557;29;20037;-96
2023/03/18 18:35:40;;;;;;;81.63;39.47;;;;;;;;;;4791149;29;20035;-96
2023/03/18 18:38:09;;;;;;;88.78;42.03;;;;;;;;;;4856102;29;20029;-96
2023/03/18 18:40:37;;;;;;;96.95;45.78;;;;;;;;;;4868222;29;20025;-96
2023/03/18 18:43:04;;;;;;;105.03;47.78;;;;;;;;;;4870511;29;20029;-96
2023/03/18 18:45:32;;;;;;;96.65;46.33;;;;;;;;;;4864773;29;20060;-96
2023/03/18 18:48:16;;;;;;;129.82;50.13;;;;;;;;;;4882414;29;20036;-96
2023/03/18 18:50:56;;;;;;;128.52;50.67;;;;;;;;;;4860700;29;20059;-96
2023/03/18 18:53:26;;;;;;;129.00;50.10;;;;;;;;;;4871401;29;20037;-93
2023/03/18 18:55:56;;;;;;;112.53;46.63;;;;;;;;;;4869489;29;20080;-96
2023/03/18 18:58:33;;;;;;;112.75;47.13;;;;;;;;;;4870709;29;20474;-96
2023/03/18 19:01:22;;;;;;;118.90;45.47;;;;;;;;;;4874179;29;20033;-94
2023/03/18 19:07:17;;;;;;;88.18;37.05;;;;;;;;;;4892081;29;20441;-96
2023/03/18 19:10:02;;;;;;;84.18;35.95;;;;;;;;;;4876350;29;20057;-96
2023/03/18 19:12:35;;;;;;;73.70;32.97;;;;;;;;;;4895345;29;20052;-96
2023/03/18 19:15:12;;;;;;;52.53;24.25;;;;;;;;;;4893334;29;20056;-96
2023/03/18 19:18:08;;;;;;;60.17;29.23;;;;;;;;;;4865953;29;20048;-96
2023/03/18 19:20:34;;;;;;;73.20;31.02;;;;;;;;;;4872273;29;20026;-94
2023/03/18 19:23:05;;;;;;;110.53;42.40;;;;;;;;;;4869172;29;20033;-96
2023/03/18 19:25:31;;;;;;;101.65;40.05;;;;;;;;;;4868109;29;20053;-92
2023/03/18 19:28:08;;;;;;;95.28;40.55;;;;;;;;;;4881214;29;20037;-96
2023/03/18 19:30:39;;;;;;;103.20;42.75;;;;;;;;;;4876204;29;20097;-96
2023/03/18 19:33:15;;;;;;;115.22;44.22;;;;;;;;;;4883008;29;20100;-94
2023/03/18 19:35:42;;;;;;;89.82;37.75;;;;;;;;;;4867929;29;20489;-92
2023/03/18 19:38:13;;;;;;;74.32;34.05;;;;;;;;;;4866450;29;20029;-93
2023/03/18 19:40:41;;;;;;;80.10;35.78;;;;;;;;;;4865836;29;20491;-94
2023/03/18 19:43:17;;;;;;;73.10;34.25;;;;;;;;;;4865913;29;20035;-94
2023/03/18 19:46:01;;;;;;;78.20;35.92;;;;;;;;;;4864788;29;20483;-94
2023/03/18 19:48:28;;;;;;;73.10;33.70;;;;;;;;;;4865450;29;20040;-96
2023/03/18 19:59:59;;;;;;;70.90;32.10;;;;;;;;;;4916907;23;20060;-93
2023/03/18 20:02:25;;;;;;;61.92;31.75;;;;;;;;;;4846950;29;20026;-93
2023/03/18 20:04:53;;;;;;;69.70;36.15;;;;;;;;;;4847232;29;20049;-95
2023/03/18 20:07:20;;;;;;;66.75;33.95;;;;;;;;;;4846744;29;20046;-95
2023/03/18 20:09:46;;;;;;;65.20;32.83;;;;;;;;;;4847791;29;20034;-95
2023/03/18 20:12:21;;;;;;;64.25;33.63;;;;;;;;;;4847484;29;20030;-95
2023/03/18 20:15:05;;;;;;;62.95;33.85;;;;;;;;;;4849253;29;20124;-96
2023/03/18 20:17:38;;;;;;;67.15;33.50;;;;;;;;;;4848305;29;20041;-93
2023/03/18 20:20:05;;;;;;;;;;;;;;;;;;4848519;29;20032;-95